createdAt,value
2022-09-11T00:01:23.169Z,1007.33
2022-09-11T00:06:29.664Z,1007.40
2022-09-11T00:11:25.566Z,1007.42
2022-09-11T00:16:25.320Z,1007.49
2022-09-11T00:21:26.104Z,1007.49
2022-09-11T00:26:34.038Z,1007.49
2022-09-11T00:31:28.061Z,1007.46
2022-09-11T00:36:28.661Z,1007.40
2022-09-11T00:41:29.316Z,1007.38
2022-09-11T00:46:29.870Z,1007.40
2022-09-11T00:51:30.652Z,1007.42
2022-09-11T00:56:31.468Z,1007.41
2022-09-11T01:01:32.205Z,1007.42
2022-09-11T01:06:33.018Z,1007.46
2022-09-11T01:11:33.922Z,1007.44
2022-09-11T01:16:34.787Z,1007.50
2022-09-11T01:21:35.575Z,1007.51
2022-09-11T01:26:36.341Z,1007.54
2022-09-11T01:31:37.133Z,1007.58
2022-09-11T01:36:37.857Z,1007.55
2022-09-11T01:41:38.612Z,1007.58
2022-09-11T01:46:39.343Z,1007.61
2022-09-11T01:51:40.024Z,1007.59
2022-09-11T01:56:40.788Z,1007.63
2022-09-11T02:01:41.544Z,1007.64
2022-09-11T02:06:42.233Z,1007.63
2022-09-11T02:11:43.010Z,1007.58
2022-09-11T02:16:43.833Z,1007.54
2022-09-11T02:21:44.545Z,1007.56
2022-09-11T02:26:45.298Z,1007.63
2022-09-11T02:31:46.109Z,1007.59
2022-09-11T02:36:46.816Z,1007.66
2022-09-11T02:41:47.590Z,1007.75
2022-09-11T02:46:48.317Z,1007.79
2022-09-11T02:51:49.031Z,1007.82
2022-09-11T02:56:49.790Z,1007.85
2022-09-11T03:01:50.643Z,1007.91
2022-09-11T03:06:51.335Z,1007.91
2022-09-11T03:11:52.106Z,1007.93
2022-09-11T03:16:52.820Z,1007.93
2022-09-11T03:21:53.542Z,1007.97
2022-09-11T03:26:54.344Z,1008.00
2022-09-11T03:31:55.176Z,1008.09
2022-09-11T03:36:55.873Z,1008.16
2022-09-11T03:41:56.857Z,1008.22
2022-09-11T03:46:57.557Z,1008.30
2022-09-11T03:51:58.268Z,1008.39
2022-09-11T03:56:59.024Z,1008.44
2022-09-11T04:01:59.769Z,1008.49
2022-09-11T04:07:00.467Z,1008.49
2022-09-11T04:12:01.183Z,1008.53
2022-09-11T04:17:01.881Z,1008.55
2022-09-11T04:22:02.578Z,1008.51
2022-09-11T04:27:03.242Z,1008.46
2022-09-11T04:32:03.907Z,1008.53
2022-09-11T04:37:04.582Z,1008.53
2022-09-11T04:42:05.243Z,1008.59
2022-09-11T04:47:05.903Z,1008.60
2022-09-11T04:52:06.596Z,1008.61
2022-09-11T04:57:07.285Z,1008.62
2022-09-11T05:02:07.954Z,1008.61
2022-09-11T05:07:08.652Z,1008.63
2022-09-11T05:12:09.326Z,1008.63
2022-09-11T05:17:10.063Z,1008.65
2022-09-11T05:22:10.779Z,1008.67
2022-09-11T05:27:11.425Z,1008.75
2022-09-11T05:32:12.087Z,1008.81
2022-09-11T05:37:13.135Z,1008.85
2022-09-11T05:42:13.278Z,1008.93
2022-09-11T05:47:13.946Z,1009.12
2022-09-11T05:52:14.724Z,1009.21
2022-09-11T05:57:15.533Z,1009.29
2022-09-11T06:02:16.214Z,1009.36
2022-09-11T06:07:16.977Z,1009.43
2022-09-11T06:12:17.603Z,1009.46
2022-09-11T06:17:18.285Z,1009.49
2022-09-11T06:22:25.960Z,1009.54
2022-09-11T06:27:19.672Z,1009.59
2022-09-11T06:32:20.404Z,1009.65
2022-09-11T06:37:21.067Z,1009.73
2022-09-11T06:42:22.055Z,1009.79
2022-09-11T06:47:23.056Z,1009.82
2022-09-11T06:52:24.332Z,1009.82
2022-09-11T06:57:24.739Z,1009.83
2022-09-11T07:02:24.958Z,1009.82
2022-09-11T07:07:25.816Z,1009.81
2022-09-11T07:12:26.449Z,1009.83
2022-09-11T07:17:27.100Z,1009.83
2022-09-11T07:22:27.827Z,1009.82
2022-09-11T07:27:28.465Z,1009.84
2022-09-11T07:32:29.149Z,1009.84
2022-09-11T07:37:29.867Z,1009.81
2022-09-11T07:42:30.522Z,1009.84
2022-09-11T07:47:31.197Z,1009.86
2022-09-11T07:52:31.858Z,1009.92
2022-09-11T07:57:32.514Z,1009.98
2022-09-11T08:02:33.661Z,1010.01
2022-09-11T08:07:33.776Z,1010.03
2022-09-11T08:12:34.435Z,1010.04
2022-09-11T08:17:35.111Z,1010.07
2022-09-11T08:22:35.786Z,1010.16
2022-09-11T08:27:36.604Z,1010.25
2022-09-11T08:32:37.483Z,1010.32
2022-09-11T08:37:38.168Z,1010.34
2022-09-11T08:42:38.940Z,1010.39
2022-09-11T08:47:39.796Z,1010.39
2022-09-11T08:52:41.650Z,1010.40
2022-09-11T08:57:41.247Z,1010.43
2022-09-11T09:02:41.940Z,1010.44
2022-09-11T09:07:42.860Z,1010.45
2022-09-11T09:12:43.611Z,1010.46
2022-09-11T09:17:44.289Z,1010.47
2022-09-11T09:22:48.104Z,1010.49
2022-09-11T09:27:45.812Z,1010.56
2022-09-11T09:32:46.465Z,1010.55
2022-09-11T09:37:47.583Z,1010.59
2022-09-11T09:42:47.748Z,1010.57
2022-09-11T09:47:55.434Z,1010.55
2022-09-11T09:52:49.113Z,1010.54
2022-09-11T09:57:49.752Z,1010.55
2022-09-11T10:02:50.434Z,1010.60
2022-09-11T10:07:51.114Z,1010.65
2022-09-11T10:12:59.886Z,1010.71
2022-09-11T10:17:53.305Z,1010.75
2022-09-11T10:22:53.039Z,1010.70
2022-09-11T10:27:53.730Z,1010.71
2022-09-11T10:32:54.421Z,1010.72
2022-09-11T10:37:55.068Z,1010.77
2022-09-11T10:42:55.717Z,1010.79
2022-09-11T10:47:56.429Z,1010.79
2022-09-11T10:52:57.094Z,1010.81
2022-09-11T10:57:57.793Z,1010.85
2022-09-11T11:02:58.461Z,1010.86
2022-09-11T11:07:59.155Z,1010.88
2022-09-11T11:12:59.762Z,1010.88
2022-09-11T11:18:00.673Z,1010.89
2022-09-11T11:23:01.397Z,1010.80
2022-09-11T11:28:01.993Z,1010.82
2022-09-11T11:33:02.668Z,1010.82
2022-09-11T11:38:03.368Z,1010.84
2022-09-11T11:43:04.013Z,1010.79
2022-09-11T11:48:04.667Z,1010.77
2022-09-11T11:53:05.334Z,1010.78
2022-09-11T11:58:06.019Z,1010.75
2022-09-11T12:03:06.679Z,1010.76
2022-09-11T12:08:07.366Z,1010.79
2022-09-11T12:13:08.063Z,1010.84
2022-09-11T12:18:08.727Z,1010.88
2022-09-11T12:23:16.423Z,1010.89
2022-09-11T12:28:10.159Z,1010.92
2022-09-11T12:33:10.794Z,1010.97
2022-09-11T12:38:13.042Z,1010.98
2022-09-11T12:43:12.272Z,1011.00
2022-09-11T12:48:12.961Z,1011.02
2022-09-11T12:53:13.615Z,1011.03
2022-09-11T12:58:14.419Z,1010.99
2022-09-11T13:03:15.145Z,1010.93
2022-09-11T13:08:15.916Z,1010.89
2022-09-11T13:13:16.616Z,1010.89
2022-09-11T13:18:17.364Z,1010.88
2022-09-11T13:23:18.055Z,1010.81
2022-09-11T13:28:24.354Z,1010.84
2022-09-11T13:33:20.398Z,1010.86
2022-09-11T13:38:20.086Z,1010.94
2022-09-11T13:43:20.785Z,1010.97
2022-09-11T13:48:22.511Z,1010.99
2022-09-11T13:53:22.235Z,1010.98
2022-09-11T13:58:22.897Z,1010.97
2022-09-11T14:03:23.751Z,1010.98
2022-09-11T14:08:25.083Z,1010.90
2022-09-11T14:13:25.348Z,1010.82
2022-09-11T14:18:26.080Z,1010.81
2022-09-11T14:23:26.769Z,1010.82
2022-09-11T14:28:27.451Z,1010.77
2022-09-11T14:33:28.213Z,1010.77
2022-09-11T14:38:28.916Z,1010.79
2022-09-11T14:43:29.823Z,1010.71
2022-09-11T14:48:30.792Z,1010.73
2022-09-11T14:53:30.985Z,1010.74
2022-09-11T14:58:31.760Z,1010.74
2022-09-11T15:03:32.531Z,1010.80
2022-09-11T15:08:33.268Z,1010.90
2022-09-11T15:13:34.035Z,1010.92
2022-09-11T15:18:34.805Z,1010.94
2022-09-11T15:23:35.546Z,1010.97
2022-09-11T15:28:36.277Z,1010.94
2022-09-11T15:33:36.946Z,1010.93
2022-09-11T15:38:37.731Z,1010.94
2022-09-11T15:43:38.449Z,1010.93
2022-09-11T15:48:39.092Z,1010.98
2022-09-11T15:53:39.811Z,1011.00
2022-09-11T15:58:40.450Z,1011.00
2022-09-11T16:03:41.194Z,1011.05
2022-09-11T16:08:41.925Z,1011.03
2022-09-11T16:13:42.623Z,1010.99
2022-09-11T16:18:43.293Z,1010.98
2022-09-11T16:23:44.228Z,1010.95
2022-09-11T16:28:44.995Z,1010.96
2022-09-11T16:33:45.958Z,1011.04
2022-09-11T16:38:46.727Z,1011.00
2022-09-11T16:43:47.369Z,1010.99
2022-09-11T16:48:51.852Z,1011.00
2022-09-11T16:53:49.789Z,1010.96
2022-09-11T16:58:49.556Z,1010.92
2022-09-11T17:03:50.367Z,1011.03
2022-09-11T17:08:51.154Z,1011.06
2022-09-11T17:13:51.995Z,1011.08
2022-09-11T17:18:52.810Z,1011.11
2022-09-11T17:23:53.475Z,1011.16
2022-09-11T17:28:55.597Z,1011.20
2022-09-11T17:33:54.824Z,1011.26
2022-09-11T17:39:03.123Z,1011.29
2022-09-11T17:43:58.167Z,1011.32
2022-09-11T17:48:56.814Z,1011.31
2022-09-11T17:53:57.542Z,1011.29
2022-09-11T17:58:58.270Z,1011.32
2022-09-11T18:03:58.950Z,1011.31
2022-09-11T18:08:59.793Z,1011.29
2022-09-11T18:14:00.648Z,1011.24
2022-09-11T18:19:01.351Z,1011.25
2022-09-11T18:24:02.136Z,1011.25
2022-09-11T18:29:02.872Z,1011.28
2022-09-11T18:34:03.634Z,1011.32
2022-09-11T18:39:04.494Z,1011.30
2022-09-11T18:44:05.305Z,1011.35
2022-09-11T18:49:06.194Z,1011.41
2022-09-11T18:54:07.060Z,1011.41
2022-09-11T18:59:07.965Z,1011.40
2022-09-11T19:04:08.771Z,1011.44
2022-09-11T19:09:09.567Z,1011.46
2022-09-11T19:14:10.503Z,1011.49
2022-09-11T19:19:11.324Z,1011.58
2022-09-11T19:24:12.149Z,1011.66
2022-09-11T19:29:12.854Z,1011.72
2022-09-11T19:34:13.763Z,1011.77
2022-09-11T19:39:14.685Z,1011.80
2022-09-11T19:44:15.418Z,1011.85
2022-09-11T19:49:16.343Z,1011.85
2022-09-11T19:54:17.207Z,1011.91
2022-09-11T19:59:17.907Z,1011.96
2022-09-11T20:04:18.886Z,1011.94
2022-09-11T20:09:30.868Z,1011.95
2022-09-11T20:14:21.323Z,1011.94
2022-09-11T20:19:21.303Z,1011.92
2022-09-11T20:24:22.261Z,1011.92
2022-09-11T20:29:22.518Z,1011.95
2022-09-11T20:34:23.217Z,1011.94
2022-09-11T20:39:23.941Z,1011.96
2022-09-11T20:44:24.667Z,1011.96
2022-09-11T20:49:25.408Z,1011.94
2022-09-11T20:54:26.116Z,1011.96
2022-09-11T20:59:26.836Z,1011.96
2022-09-11T21:04:27.565Z,1011.97
2022-09-11T21:09:28.320Z,1011.98
2022-09-11T21:14:29.043Z,1011.95
2022-09-11T21:19:29.808Z,1011.98
2022-09-11T21:24:37.671Z,1011.97
2022-09-11T21:29:32.568Z,1011.99
2022-09-11T21:34:32.286Z,1011.99
2022-09-11T21:39:33.015Z,1011.99
2022-09-11T21:44:33.802Z,1011.99
2022-09-11T21:49:34.491Z,1011.98
2022-09-11T21:54:35.248Z,1012.00
2022-09-11T21:59:35.983Z,1012.03
2022-09-11T22:04:36.753Z,1011.99
2022-09-11T22:09:37.448Z,1011.94
2022-09-11T22:14:38.235Z,1011.91
2022-09-11T22:19:40.428Z,1011.90
2022-09-11T22:24:40.447Z,1012.01
2022-09-11T22:29:42.904Z,1012.06
2022-09-11T22:34:41.751Z,1012.04
2022-09-11T22:39:41.489Z,1012.01
2022-09-11T22:44:42.187Z,1011.98
2022-09-11T22:49:42.937Z,1012.02
2022-09-11T22:54:43.681Z,1011.98
2022-09-11T22:59:44.442Z,1011.96
2022-09-11T23:04:45.184Z,1011.94
2022-09-11T23:09:45.886Z,1011.95
2022-09-11T23:14:46.664Z,1011.96
2022-09-11T23:19:47.336Z,1011.98
2022-09-11T23:24:48.113Z,1011.96
2022-09-11T23:29:48.819Z,1011.93
2022-09-11T23:34:49.570Z,1011.92
2022-09-11T23:39:50.971Z,1011.90
2022-09-11T23:44:51.151Z,1011.86
2022-09-11T23:49:51.918Z,1011.81
2022-09-11T23:54:54.286Z,1011.81
2022-09-11T23:59:53.701Z,1011.80
